Fugaku Maru — JH3428 — position and weather

sailwx.info

Track history (hours):
 
Tides and Currents Weather Stations Pressure Air Temp Water Temp Dewpoint Dewpoint Depression Visibility Wind Speed Wind Dir Waves Ship Positions

Fugaku Maru

Last reported at 2016-Jul-22 22:31 UTC. Time now 2016-Jul-23 15:07 UTC.
Position N 35°37' E 140°53'.

Length 165 m; draft 7.2 m.

Type: Cargo ship. MMSI: 431200176.

Date/timePositionNaut miles runAvg speedWind from/ knotsBaromVisibWave heightAir tempDewpointWater temp
2016-Jul-22 22:31N 35°37' E 140°53'1919.5
2016-Jul-22 21:33N 35°20' E 140°42'2120.0
2016-Jul-22 20:31N 35°04' E 140°27'1919.4
2016-Jul-22 19:33N 34°54' E 140°08'2319.7
2016-Jul-22 18:23N 34°41' E 139°44'26 1.0
2016-Jul-21 15:29N 34°32' E 139°14'2018.9
2016-Jul-21 14:25N 34°39' E 139°37'1618.7
2016-Jul-21 13:33N 34°44' E 139°56'1818.6
2016-Jul-21 12:33N 34°52' E 140°17'2218.3
2016-Jul-21 11:20N 35°07' E 140°36'1418.2
2016-Jul-21 10:33N 35°19' E 140°46'2117.0
2016-Jul-21 09:18N 35°36' E 141°03'  
2016-Jul-16 23:32N 36°08' E 141°03'2020.7
2016-Jul-16 22:33N 35°48' E 140°59'2120.8
2016-Jul-16 21:34N 35°29' E 140°49'2221.9
2016-Jul-16 20:34N 35°12' E 140°33'2120.9
2016-Jul-16 19:33N 34°58' E 140°14'2020.3
2016-Jul-16 18:34N 34°47' E 139°53'2020.1
2016-Jul-16 17:33N 34°39' E 139°30'48 2.5
2016-Jul-15 22:34N 34°31' E 138°33'6320.5
2016-Jul-15 19:29N 34°45' E 139°48'1920.9
2016-Jul-15 18:33N 34°54' E 140°08'2220.9
2016-Jul-15 17:31N 35°07' E 140°30'2020.6
2016-Jul-15 16:33N 35°23' E 140°44'  
2016-Jul-13 00:14N 36°33' E 141°04'1721.0
2016-Jul-12 23:24N 36°15' E 141°02'1720.3
2016-Jul-12 22:33N 35°58' E 141°01'  
Track history (hours):
 
Tides and Currents Weather Stations Pressure Air Temp Water Temp Dewpoint Dewpoint Depression Visibility Wind Speed Wind Dir Waves Ship Positions

Fugaku Maru

Last reported at 2016-Jul-22 22:31 UTC. Time now 2016-Jul-23 15:07 UTC.
Position N 35°37' E 140°53'.

Length 165 m; draft 7.2 m.

Type: Cargo ship. MMSI: 431200176.

Date/timePositionNaut miles runAvg speedWind from/ knotsBaromVisibWave heightAir tempDewpointWater temp
2016-Jul-22 22:31N 35°37' E 140°53'1919.5
2016-Jul-22 21:33N 35°20' E 140°42'2120.0
2016-Jul-22 20:31N 35°04' E 140°27'1919.4
2016-Jul-22 19:33N 34°54' E 140°08'2319.7
2016-Jul-22 18:23N 34°41' E 139°44'26 1.0
2016-Jul-21 15:29N 34°32' E 139°14'2018.9
2016-Jul-21 14:25N 34°39' E 139°37'1618.7
2016-Jul-21 13:33N 34°44' E 139°56'1818.6
2016-Jul-21 12:33N 34°52' E 140°17'2218.3
2016-Jul-21 11:20N 35°07' E 140°36'1418.2
2016-Jul-21 10:33N 35°19' E 140°46'2117.0
2016-Jul-21 09:18N 35°36' E 141°03'  
2016-Jul-16 23:32N 36°08' E 141°03'2020.7
2016-Jul-16 22:33N 35°48' E 140°59'2120.8
2016-Jul-16 21:34N 35°29' E 140°49'2221.9
2016-Jul-16 20:34N 35°12' E 140°33'2120.9
2016-Jul-16 19:33N 34°58' E 140°14'2020.3
2016-Jul-16 18:34N 34°47' E 139°53'2020.1
2016-Jul-16 17:33N 34°39' E 139°30'48 2.5
2016-Jul-15 22:34N 34°31' E 138°33'6320.5
2016-Jul-15 19:29N 34°45' E 139°48'1920.9
2016-Jul-15 18:33N 34°54' E 140°08'2220.9
2016-Jul-15 17:31N 35°07' E 140°30'2020.6
2016-Jul-15 16:33N 35°23' E 140°44'  
2016-Jul-13 00:14N 36°33' E 141°04'1721.0
2016-Jul-12 23:24N 36°15' E 141°02'1720.3
2016-Jul-12 22:33N 35°58' E 141°01'  

Dump ship's entire track history